Time;durP1;ratioP1;P1;durP2;ratioP2;P2;SDS_P1;SDS_P2;PMS_P1;PMS_P2;Temp;Humidity;BMP_temperature;BMP_pressure;BME280_temperature;BME280_humidity;BME280_pressure;Samples;Min_cycle;Max_cycle;Signal;HPM_P1;HPM_P2
2023/08/08 00:00:58;;;;;;;3.83;3.27;;;11.50;99.90;;;;;;5052315;28;20225;-73
2023/08/08 00:03:25;;;;;;;3.80;3.13;;;11.50;99.90;;;;;;5052702;28;20204;-73
2023/08/08 00:05:52;;;;;;;5.13;3.37;;;11.50;99.90;;;;;;5052552;28;20205;-73
2023/08/08 00:08:20;;;;;;;5.40;3.30;;;11.50;99.90;;;;;;5052461;28;20319;-73
2023/08/08 00:10:46;;;;;;;3.77;3.40;;;11.60;99.90;;;;;;5052384;28;20645;-73
2023/08/08 00:13:13;;;;;;;4.00;3.20;;;11.60;99.90;;;;;;5052349;28;20649;-73
2023/08/08 00:15:40;;;;;;;3.30;3.00;;;11.60;99.90;;;;;;5052623;28;20205;-74
2023/08/08 00:18:06;;;;;;;4.67;3.07;;;11.60;99.90;;;;;;5052526;28;20280;-73
2023/08/08 00:20:33;;;;;;;3.70;3.13;;;11.60;99.90;;;;;;5052234;28;20271;-73
2023/08/08 00:22:59;;;;;;;4.23;3.13;;;11.60;99.90;;;;;;5052386;28;20197;-74
2023/08/08 00:25:28;;;;;;;3.60;3.30;;;11.60;99.90;;;;;;5052302;28;20259;-73
2023/08/08 00:27:54;;;;;;;4.63;3.00;;;11.60;99.90;;;;;;5052259;28;20272;-73
2023/08/08 00:30:21;;;;;;;3.37;3.07;;;11.60;99.90;;;;;;5052133;28;20604;-73
2023/08/08 00:32:48;;;;;;;5.23;3.00;;;11.70;99.90;;;;;;5052380;28;20206;-73
2023/08/08 00:35:14;;;;;;;2.83;2.53;;;11.70;99.90;;;;;;5052253;28;20198;-73
2023/08/08 00:37:42;;;;;;;4.30;2.77;;;11.70;99.90;;;;;;5053044;28;20201;-73
2023/08/08 00:40:09;;;;;;;3.83;2.53;;;11.80;99.90;;;;;;5055554;28;20639;-73
2023/08/08 00:42:37;;;;;;;3.77;2.90;;;12.00;99.90;;;;;;5055684;28;20600;-73
2023/08/08 00:45:05;;;;;;;2.53;2.33;;;12.10;99.90;;;;;;5055922;28;20224;-73
2023/08/08 00:47:32;;;;;;;3.43;2.63;;;12.20;99.90;;;;;;5055908;28;20197;-73
2023/08/08 00:50:00;;;;;;;2.63;2.43;;;12.20;99.90;;;;;;5055814;28;20200;-73
2023/08/08 00:52:27;;;;;;;3.10;2.63;;;12.20;99.90;;;;;;5055739;28;20271;-73
2023/08/08 00:54:53;;;;;;;3.30;2.20;;;12.20;99.90;;;;;;5055618;28;20232;-73
2023/08/08 00:57:20;;;;;;;3.73;2.50;;;12.10;99.90;;;;;;5055573;28;20331;-73
2023/08/08 00:59:48;;;;;;;2.30;2.10;;;12.20;99.90;;;;;;5055288;28;20562;-73
2023/08/08 01:02:15;;;;;;;2.23;2.03;;;12.20;99.90;;;;;;5055554;28;20201;-73
2023/08/08 01:04:43;;;;;;;2.73;1.80;;;12.20;99.90;;;;;;5055287;28;20650;-73
2023/08/08 01:07:22;;;;;;;3.83;2.20;;;12.10;99.90;;;;;;5055337;28;20288;-73
2023/08/08 01:09:56;;;;;;;3.23;1.90;;;12.10;99.90;;;;;;5055195;28;20724;-73
2023/08/08 01:12:24;;;;;;;2.53;1.70;;;12.20;99.90;;;;;;5055437;28;20197;-73
2023/08/08 01:14:53;;;;;;;2.00;1.80;;;12.10;99.90;;;;;;5055233;28;20251;-73
2023/08/08 01:17:20;;;;;;;3.30;2.20;;;12.00;99.90;;;;;;5055183;28;20335;-73
2023/08/08 01:19:47;;;;;;;2.10;1.80;;;11.90;99.90;;;;;;5055038;28;20627;-73
2023/08/08 01:22:23;;;;;;;2.53;2.10;;;11.80;99.90;;;;;;5054991;28;20205;-73
2023/08/08 01:24:51;;;;;;;2.70;2.20;;;11.80;99.90;;;;;;5055132;28;20215;-73
2023/08/08 01:27:18;;;;;;;2.83;2.07;;;11.70;99.90;;;;;;5054930;28;20681;-73
2023/08/08 01:29:45;;;;;;;2.30;1.90;;;11.70;99.90;;;;;;5055023;28;20259;-73
2023/08/08 01:32:12;;;;;;;2.70;2.20;;;11.60;99.90;;;;;;5054851;28;20244;-73
2023/08/08 01:34:38;;;;;;;8.87;2.00;;;11.60;99.90;;;;;;5054770;28;20210;-73
2023/08/08 01:37:11;;;;;;;2.20;2.00;;;11.60;99.90;;;;;;5054988;28;20205;-74
2023/08/08 01:39:39;;;;;;;2.23;2.03;;;11.50;99.90;;;;;;5054657;28;20225;-73
2023/08/08 01:42:08;;;;;;;4.13;2.07;;;11.60;99.90;;;;;;5054812;28;20197;-73
2023/08/08 01:44:35;;;;;;;3.27;2.03;;;11.60;99.90;;;;;;5054658;28;20202;-73
2023/08/08 01:47:02;;;;;;;2.70;2.10;;;11.60;99.90;;;;;;5054590;28;20661;-73
2023/08/08 01:49:29;;;;;;;5.37;2.30;;;11.60;99.90;;;;;;5053604;28;20197;-73
2023/08/08 01:51:55;;;;;;;4.37;2.67;;;11.60;99.90;;;;;;5054842;28;20194;-73
2023/08/08 01:54:22;;;;;;;3.50;2.37;;;11.60;99.90;;;;;;5054572;28;20198;-73
2023/08/08 01:56:49;;;;;;;3.27;2.37;;;11.70;99.90;;;;;;5054481;28;20201;-73
2023/08/08 01:59:16;;;;;;;3.57;2.20;;;11.70;99.90;;;;;;5054413;28;20202;-73
2023/08/08 02:01:43;;;;;;;2.30;2.10;;;11.70;99.90;;;;;;5054172;28;20633;-73
2023/08/08 02:04:10;;;;;;;3.30;2.37;;;11.70;99.90;;;;;;5054215;28;20604;-75
2023/08/08 02:06:36;;;;;;;4.40;2.83;;;11.60;99.90;;;;;;5054386;28;20194;-77
2023/08/08 02:09:03;;;;;;;3.10;2.80;;;11.60;99.90;;;;;;5054349;28;20255;-76
2023/08/08 02:11:30;;;;;;;6.93;2.87;;;11.40;99.90;;;;;;5054208;28;20247;-76
2023/08/08 02:13:56;;;;;;;3.43;3.10;;;11.40;99.90;;;;;;5054128;28;20228;-76
2023/08/08 02:16:25;;;;;;;4.07;3.30;;;11.30;99.90;;;;;;5054028;28;20193;-76
2023/08/08 02:18:51;;;;;;;5.43;3.53;;;11.30;99.90;;;;;;5054191;28;20194;-76
2023/08/08 02:21:18;;;;;;;3.93;3.50;;;11.30;99.90;;;;;;5053800;28;20692;-76
2023/08/08 02:23:44;;;;;;;3.53;3.23;;;11.30;99.90;;;;;;5053961;28;20217;-77
2023/08/08 02:26:11;;;;;;;4.20;3.80;;;11.30;99.90;;;;;;5053854;28;20194;-77
2023/08/08 02:28:38;;;;;;;4.00;3.70;;;11.30;99.90;;;;;;5053815;28;20608;-77
2023/08/08 02:31:04;;;;;;;7.90;3.60;;;11.30;99.90;;;;;;5053731;28;20197;-77
2023/08/08 02:33:32;;;;;;;5.50;3.70;;;11.20;99.90;;;;;;5053930;28;20202;-77
2023/08/08 02:35:59;;;;;;;5.27;3.57;;;11.20;99.90;;;;;;5053729;28;20198;-77
2023/08/08 02:38:25;;;;;;;4.57;3.47;;;11.10;99.90;;;;;;5053806;28;20272;-78
2023/08/08 02:40:52;;;;;;;4.87;3.77;;;11.20;99.90;;;;;;5053633;28;20225;-78
2023/08/08 02:43:19;;;;;;;5.17;3.70;;;11.20;99.90;;;;;;5053571;28;20301;-77
2023/08/08 02:45:46;;;;;;;4.33;3.90;;;11.10;99.90;;;;;;5053791;28;20198;-78
2023/08/08 02:48:12;;;;;;;4.73;3.30;;;11.10;99.90;;;;;;5053397;28;20209;-77
2023/08/08 02:50:40;;;;;;;3.70;3.20;;;11.10;99.90;;;;;;5053589;28;20198;-78
2023/08/08 02:53:07;;;;;;;5.23;3.70;;;11.10;99.90;;;;;;5053505;28;20202;-78
2023/08/08 02:55:33;;;;;;;3.83;3.47;;;11.10;99.90;;;;;;5053338;28;20201;-78
2023/08/08 02:58:00;;;;;;;4.50;3.70;;;11.10;99.90;;;;;;5053176;28;20654;-78
2023/08/08 03:00:27;;;;;;;6.20;3.43;;;11.00;99.90;;;;;;5053289;28;20229;-78
2023/08/08 03:02:53;;;;;;;4.90;3.60;;;11.00;99.90;;;;;;5053285;28;20711;-78
2023/08/08 03:05:20;;;;;;;4.47;3.73;;;11.00;99.90;;;;;;5053420;28;20198;-78
2023/08/08 03:07:48;;;;;;;4.33;3.50;;;10.90;99.90;;;;;;5053370;28;20198;-78
2023/08/08 03:10:15;;;;;;;5.80;3.83;;;10.80;99.90;;;;;;5053121;28;20239;-78
2023/08/08 03:12:41;;;;;;;4.30;3.57;;;10.80;99.90;;;;;;5052953;28;20604;-78
2023/08/08 03:15:10;;;;;;;5.07;3.87;;;10.80;99.90;;;;;;5053288;28;20739;-78
2023/08/08 03:17:37;;;;;;;4.90;4.27;;;10.70;99.90;;;;;;5053235;28;20198;-79
2023/08/08 03:20:06;;;;;;;5.40;3.93;;;10.60;99.90;;;;;;5053177;28;20201;-78
2023/08/08 03:22:32;;;;;;;4.40;3.97;;;10.50;99.90;;;;;;5053003;28;20271;-78
2023/08/08 03:25:00;;;;;;;4.90;4.40;;;10.40;99.90;;;;;;5052738;28;20201;-78
2023/08/08 03:27:27;;;;;;;9.73;4.50;;;10.30;99.90;;;;;;5053199;28;20210;-78
2023/08/08 03:29:53;;;;;;;9.30;4.80;;;10.30;99.90;;;;;;5052836;28;20267;-78
2023/08/08 03:32:20;;;;;;;5.47;4.43;;;10.20;99.90;;;;;;5052826;28;20255;-78
2023/08/08 03:34:46;;;;;;;5.27;4.70;;;10.30;99.90;;;;;;5052819;28;20251;-78
2023/08/08 03:37:13;;;;;;;5.87;4.87;;;10.30;99.90;;;;;;5052835;28;20256;-78
2023/08/08 03:39:40;;;;;;;5.17;4.50;;;10.30;99.90;;;;;;5052534;28;20229;-78
2023/08/08 03:42:09;;;;;;;5.37;4.87;;;10.30;99.90;;;;;;5052876;28;20233;-78
2023/08/08 03:44:35;;;;;;;4.97;4.47;;;10.20;99.90;;;;;;5052879;28;20271;-78
2023/08/08 03:47:02;;;;;;;4.60;4.20;;;10.20;99.90;;;;;;5052895;28;20275;-78
2023/08/08 03:49:28;;;;;;;6.47;4.93;;;10.20;99.90;;;;;;5052646;28;20205;-78
2023/08/08 03:51:55;;;;;;;6.77;4.83;;;10.20;99.90;;;;;;5058685;28;20198;-78
2023/08/08 03:54:22;;;;;;;7.20;4.90;;;10.20;99.90;;;;;;5052598;28;20198;-78
2023/08/08 03:56:48;;;;;;;5.07;4.67;;;10.20;99.90;;;;;;5053045;28;20201;-79
2023/08/08 03:59:16;;;;;;;5.73;5.00;;;10.20;99.90;;;;;;5052803;28;20267;-79
2023/08/08 04:01:43;;;;;;;4.87;4.40;;;10.20;99.90;;;;;;5052663;28;20229;-78
2023/08/08 04:04:10;;;;;;;8.77;5.20;;;10.20;99.90;;;;;;5052808;28;20341;-78
2023/08/08 04:06:36;;;;;;;7.70;4.70;;;10.20;99.90;;;;;;5052592;28;20239;-78
2023/08/08 04:09:03;;;;;;;7.17;4.93;;;10.20;99.90;;;;;;5052289;28;20255;-78
2023/08/08 04:11:29;;;;;;;7.10;5.17;;;10.20;99.90;;;;;;5052508;28;20605;-79
2023/08/08 04:13:56;;;;;;;7.23;4.93;;;10.20;99.90;;;;;;5055598;28;20251;-79
2023/08/08 04:16:24;;;;;;;5.73;4.60;;;10.20;99.90;;;;;;5056539;28;20201;-78
2023/08/08 04:18:51;;;;;;;5.87;4.87;;;10.20;99.90;;;;;;5056491;28;20267;-78
2023/08/08 04:21:17;;;;;;;5.47;4.97;;;10.10;99.90;;;;;;5056238;28;20217;-78
2023/08/08 04:23:44;;;;;;;7.53;5.23;;;10.00;99.90;;;;;;5056271;28;20711;-79
2023/08/08 04:26:10;;;;;;;6.97;5.47;;;10.00;99.90;;;;;;5056460;28;20248;-79
2023/08/08 04:28:37;;;;;;;6.13;5.30;;;10.10;99.90;;;;;;5056045;28;20600;-78
2023/08/08 04:31:04;;;;;;;5.30;4.80;;;10.10;99.90;;;;;;5056121;28;20210;-78
2023/08/08 04:33:32;;;;;;;7.87;5.17;;;10.10;99.90;;;;;;5056264;28;20201;-79
2023/08/08 04:35:58;;;;;;;7.03;4.83;;;10.20;99.90;;;;;;5056070;28;20202;-79
2023/08/08 04:38:25;;;;;;;7.10;5.10;;;10.20;99.90;;;;;;5056356;28;20198;-78
2023/08/08 04:40:52;;;;;;;5.30;4.80;;;10.20;99.90;;;;;;5055766;28;20701;-78
2023/08/08 04:43:18;;;;;;;7.20;4.80;;;10.20;99.90;;;;;;5056009;28;20198;-78
2023/08/08 04:45:45;;;;;;;5.93;5.17;;;10.10;99.90;;;;;;5055686;28;20715;-79
2023/08/08 04:48:11;;;;;;;5.63;5.03;;;10.10;99.90;;;;;;5055865;28;20202;-79
2023/08/08 04:50:40;;;;;;;6.80;4.93;;;10.20;99.90;;;;;;5056796;28;20247;-78
2023/08/08 04:53:07;;;;;;;5.03;4.53;;;10.20;99.90;;;;;;5056019;28;20282;-79
2023/08/08 04:55:34;;;;;;;5.83;4.97;;;10.20;99.90;;;;;;5055683;28;20197;-79
2023/08/08 04:58:00;;;;;;;5.30;4.57;;;10.30;99.90;;;;;;5055537;28;20198;-79
2023/08/08 05:00:27;;;;;;;5.47;4.90;;;10.40;99.90;;;;;;5055353;28;20202;-79
2023/08/08 05:02:54;;;;;;;5.57;4.97;;;10.50;99.90;;;;;;5055207;28;20229;-78
2023/08/08 05:05:20;;;;;;;7.40;4.60;;;10.50;99.90;;;;;;5055517;28;20194;-79
2023/08/08 05:07:48;;;;;;;6.00;4.73;;;10.60;99.90;;;;;;5055509;28;20259;-79
2023/08/08 05:10:15;;;;;;;4.90;4.40;;;10.70;99.90;;;;;;5055382;28;20252;-79
2023/08/08 05:12:42;;;;;;;5.90;4.30;;;10.80;99.90;;;;;;5055284;28;20201;-79
2023/08/08 05:15:09;;;;;;;6.93;4.50;;;10.90;99.90;;;;;;5054952;28;20604;-79
2023/08/08 05:17:36;;;;;;;4.00;3.60;;;11.00;99.90;;;;;;5054871;28;20205;-78
2023/08/08 05:20:03;;;;;;;4.90;3.70;;;11.10;99.90;;;;;;5054950;28;20657;-78
2023/08/08 05:22:30;;;;;;;5.33;3.83;;;11.20;99.90;;;;;;5055048;28;20232;-78
2023/08/08 05:24:58;;;;;;;7.90;4.00;;;11.30;99.90;;;;;;5053749;28;20227;-78
2023/08/08 05:27:24;;;;;;;4.57;3.97;;;11.40;99.90;;;;;;5055069;28;20202;-78
2023/08/08 05:29:51;;;;;;;7.43;4.20;;;11.60;99.90;;;;;;5055060;28;20256;-78
2023/08/08 05:32:18;;;;;;;5.23;3.60;;;11.80;99.90;;;;;;5054742;28;20263;-77
2023/08/08 05:34:44;;;;;;;8.33;3.73;;;12.00;99.90;;;;;;5054964;28;20255;-78
2023/08/08 05:37:11;;;;;;;3.63;3.33;;;12.10;99.90;;;;;;5054858;28;20202;-78
2023/08/08 05:39:37;;;;;;;5.33;3.30;;;12.10;99.90;;;;;;5054492;28;20693;-76
2023/08/08 05:42:06;;;;;;;4.23;3.17;;;12.30;99.90;;;;;;5054498;28;20226;-76
2023/08/08 05:44:33;;;;;;;4.97;3.30;;;12.30;99.90;;;;;;5054536;28;20205;-75
2023/08/08 05:46:59;;;;;;;5.87;3.07;;;12.40;99.90;;;;;;5054270;28;20232;-75
2023/08/08 05:49:26;;;;;;;3.20;2.80;;;12.50;99.90;;;;;;5054587;28;20248;-77
2023/08/08 05:51:53;;;;;;;5.73;2.70;;;12.60;99.90;;;;;;5054461;28;20198;-76
2023/08/08 05:54:19;;;;;;;4.93;2.80;;;12.80;99.90;;;;;;5054208;28;20266;-75
2023/08/08 05:56:47;;;;;;;5.17;2.90;;;12.90;99.90;;;;;;5054204;28;20667;-75
2023/08/08 05:59:14;;;;;;;3.70;2.80;;;12.90;99.90;;;;;;5054044;28;20198;-75
2023/08/08 06:01:41;;;;;;;4.77;2.73;;;12.90;99.90;;;;;;5054505;28;20279;-76
2023/08/08 06:04:08;;;;;;;4.80;2.97;;;13.00;99.90;;;;;;5054300;28;20243;-75
2023/08/08 06:06:34;;;;;;;6.13;2.83;;;12.90;99.90;;;;;;5054097;28;20197;-74
2023/08/08 06:09:01;;;;;;;3.80;3.17;;;12.90;99.90;;;;;;5054174;28;20557;-74
2023/08/08 06:11:28;;;;;;;3.97;2.77;;;12.90;99.90;;;;;;5054024;28;20724;-75
2023/08/08 06:13:55;;;;;;;3.37;2.47;;;13.00;99.90;;;;;;5054025;28;20205;-76
2023/08/08 06:16:23;;;;;;;4.70;2.90;;;13.00;99.90;;;;;;5054072;28;20200;-73
2023/08/08 06:18:50;;;;;;;5.80;2.80;;;13.00;99.90;;;;;;5037464;28;20540;-74
2023/08/08 06:21:16;;;;;;;5.70;2.90;;;13.10;99.90;;;;;;5033290;28;20256;-74
2023/08/08 06:23:43;;;;;;;3.80;2.50;;;13.10;99.90;;;;;;5033826;28;20207;-74
2023/08/08 06:26:10;;;;;;;3.17;2.73;;;13.20;99.90;;;;;;5033833;28;20238;-73
2023/08/08 06:28:36;;;;;;;4.33;2.80;;;13.30;99.90;;;;;;5033713;28;20728;-73
2023/08/08 06:31:03;;;;;;;4.33;2.20;;;13.30;99.90;;;;;;5033817;28;20194;-72
2023/08/08 06:33:31;;;;;;;4.63;2.70;;;13.50;99.90;;;;;;5033692;28;20202;-72
2023/08/08 06:35:58;;;;;;;3.90;2.47;;;13.50;99.90;;;;;;5033207;28;20248;-71
2023/08/08 06:38:24;;;;;;;4.73;2.50;;;13.70;99.90;;;;;;5033423;28;20244;-72
2023/08/08 06:40:51;;;;;;;3.50;2.40;;;13.70;99.90;;;;;;5033244;28;20322;-71
2023/08/08 06:43:18;;;;;;;4.23;2.50;;;13.80;99.90;;;;;;5033205;28;20598;-73
2023/08/08 06:45:44;;;;;;;2.83;2.57;;;13.90;99.90;;;;;;5033402;28;20202;-73
2023/08/08 06:48:11;;;;;;;2.80;2.60;;;14.00;99.90;;;;;;5033312;28;20717;-74
2023/08/08 06:50:39;;;;;;;3.27;2.47;;;14.10;99.90;;;;;;5033389;28;20260;-74
2023/08/08 06:53:06;;;;;;;4.30;2.53;;;14.20;99.90;;;;;;5033260;28;20203;-74
2023/08/08 06:55:32;;;;;;;4.97;2.37;;;14.30;99.90;;;;;;5032816;28;20229;-74
2023/08/08 06:57:59;;;;;;;3.30;2.17;;;14.40;99.90;;;;;;5033268;28;20728;-74
2023/08/08 07:00:27;;;;;;;2.90;2.30;;;14.50;99.90;;;;;;5033401;28;20253;-74
2023/08/08 07:02:53;;;;;;;3.33;2.50;;;14.50;99.90;;;;;;5033209;28;20316;-74
2023/08/08 07:05:22;;;;;;;3.30;2.33;;;14.60;99.90;;;;;;5033218;28;20559;-74
2023/08/08 07:07:50;;;;;;;4.03;2.50;;;14.60;99.90;;;;;;5033114;28;20256;-74
2023/08/08 07:10:17;;;;;;;3.83;2.23;;;14.70;99.90;;;;;;5033117;28;20532;-78
2023/08/08 07:12:43;;;;;;;3.87;2.30;;;14.70;99.90;;;;;;5033060;28;20201;-74
2023/08/08 07:15:11;;;;;;;5.63;2.83;;;14.70;99.90;;;;;;5033176;28;20279;-75
2023/08/08 07:17:37;;;;;;;3.80;2.30;;;14.80;99.90;;;;;;5032838;28;20639;-74
2023/08/08 07:20:05;;;;;;;2.43;2.23;;;14.90;99.90;;;;;;5033092;28;20198;-74
2023/08/08 07:22:32;;;;;;;3.83;2.60;;;15.00;99.90;;;;;;5032655;28;20268;-74
2023/08/08 07:25:00;;;;;;;3.50;2.47;;;15.00;99.90;;;;;;5033139;28;20198;-75
2023/08/08 07:27:27;;;;;;;3.87;2.80;;;15.10;99.90;;;;;;5032936;28;20206;-75
2023/08/08 07:29:54;;;;;;;5.77;2.40;;;15.10;99.90;;;;;;5032860;28;20602;-74
2023/08/08 07:32:21;;;;;;;3.37;2.17;;;15.10;99.90;;;;;;5032894;28;20256;-74
2023/08/08 07:34:47;;;;;;;4.47;2.60;;;15.30;99.90;;;;;;5032928;28;20249;-74
2023/08/08 07:37:15;;;;;;;4.03;2.23;;;15.40;99.90;;;;;;5032544;28;20597;-74
2023/08/08 07:39:41;;;;;;;5.07;2.60;;;15.30;99.90;;;;;;5032516;28;20714;-75
2023/08/08 07:42:09;;;;;;;3.23;2.50;;;15.40;99.90;;;;;;5032738;28;20222;-75
2023/08/08 07:44:38;;;;;;;2.93;2.40;;;15.60;99.90;;;;;;5032896;28;20248;-74
2023/08/08 07:47:05;;;;;;;3.20;2.20;;;15.70;99.90;;;;;;5032593;28;20195;-74
2023/08/08 07:49:32;;;;;;;2.63;2.30;;;15.60;99.90;;;;;;5036641;28;20198;-74
2023/08/08 07:51:58;;;;;;;2.90;2.10;;;15.80;99.90;;;;;;5036915;28;20252;-75
2023/08/08 07:54:25;;;;;;;3.10;2.30;;;15.90;99.90;;;;;;5036898;28;20202;-74
2023/08/08 07:56:51;;;;;;;2.87;2.47;;;16.00;99.90;;;;;;5036800;28;20252;-74
2023/08/08 07:59:19;;;;;;;2.77;1.93;;;15.90;99.90;;;;;;5036778;28;20608;-74
2023/08/08 08:01:46;;;;;;;2.73;2.20;;;16.00;99.90;;;;;;5036449;28;20252;-74
2023/08/08 08:04:13;;;;;;;3.07;2.20;;;16.20;99.90;;;;;;5036503;28;20205;-74
2023/08/08 08:06:40;;;;;;;6.73;2.20;;;16.50;99.90;;;;;;5036676;28;20220;-74
2023/08/08 08:09:06;;;;;;;4.20;2.17;;;16.30;99.90;;;;;;5036581;28;20272;-73
2023/08/08 08:11:33;;;;;;;4.23;2.33;;;16.50;99.90;;;;;;5036517;28;20230;-73
2023/08/08 08:14:00;;;;;;;2.75;2.13;;;16.70;99.90;;;;;;5036569;28;20418;-73
2023/08/08 08:16:28;;;;;;;2.30;1.90;;;16.60;99.90;;;;;;5036248;28;20240;-73
2023/08/08 08:18:54;;;;;;;3.67;2.30;;;16.90;99.90;;;;;;5036251;28;20198;-73
2023/08/08 08:21:21;;;;;;;2.20;1.90;;;16.80;99.90;;;;;;5036155;28;20199;-73
2023/08/08 08:23:48;;;;;;;4.25;2.05;;;17.00;99.90;;;;;;5036243;28;20230;-74
2023/08/08 08:26:15;;;;;;;3.20;2.10;;;17.50;99.90;;;;;;5036139;28;20194;-73
2023/08/08 08:28:41;;;;;;;3.85;2.00;;;17.70;99.90;;;;;;5036082;28;20198;-73
2023/08/08 08:31:08;;;;;;;2.40;1.80;;;17.50;99.90;;;;;;5035943;28;20198;-73
2023/08/08 08:33:36;;;;;;;3.58;2.08;;;17.80;99.90;;;;;;5035863;28;20202;-74
2023/08/08 08:36:03;;;;;;;3.42;2.10;;;17.60;99.90;;;;;;5035981;28;20264;-73
2023/08/08 08:38:30;;;;;;;3.35;2.00;;;17.30;99.90;;;;;;5035753;28;20275;-73
2023/08/08 08:40:58;;;;;;;2.55;1.80;;;17.10;99.90;;;;;;5035663;28;20202;-74
2023/08/08 08:43:24;;;;;;;2.60;1.95;;;17.10;99.90;;;;;;5035639;28;20288;-73
2023/08/08 08:45:53;;;;;;;5.00;1.92;;;17.30;99.90;;;;;;5035551;28;20281;-74
2023/08/08 08:48:22;;;;;;;2.10;1.77;;;17.70;99.90;;;;;;5035758;28;20250;-74
2023/08/08 08:50:50;;;;;;;3.90;1.70;;;17.70;99.90;;;;;;5035720;28;20229;-73
2023/08/08 08:53:17;;;;;;;3.25;1.85;;;17.50;99.90;;;;;;5035479;28;20199;-73
2023/08/08 08:55:44;;;;;;;2.08;1.60;;;17.40;99.90;;;;;;5035532;28;20195;-73
2023/08/08 08:58:14;;;;;;;2.08;1.75;;;17.70;99.90;;;;;;5035050;28;20198;-74
2023/08/08 09:00:41;;;;;;;3.17;2.08;;;17.60;99.90;;;;;;5035637;28;20202;-73
2023/08/08 09:03:08;;;;;;;2.90;1.65;;;18.20;99.90;;;;;;5035155;28;20694;-74
2023/08/08 09:05:35;;;;;;;4.07;1.88;;;18.50;99.90;;;;;;5035456;28;20233;-74
2023/08/08 09:08:03;;;;;;;3.35;1.90;;;18.00;99.90;;;;;;5035243;28;20229;-74
2023/08/08 09:10:32;;;;;;;2.33;1.50;;;18.50;99.90;;;;;;5035307;28;20203;-74
2023/08/08 09:12:59;;;;;;;2.25;1.75;;;18.40;99.90;;;;;;5034978;28;20264;-74
2023/08/08 09:15:26;;;;;;;2.25;1.80;;;18.40;99.90;;;;;;5035340;28;20205;-74
2023/08/08 09:17:53;;;;;;;3.40;1.90;;;18.60;99.90;;;;;;5035137;28;20249;-73
2023/08/08 09:20:20;;;;;;;5.10;1.90;;;18.50;99.90;;;;;;5034962;28;20723;-73
2023/08/08 09:22:46;;;;;;;3.08;1.73;;;18.60;99.90;;;;;;5034989;28;20222;-73
2023/08/08 09:25:14;;;;;;;3.05;1.92;;;18.10;99.90;;;;;;5034899;28;20194;-73
2023/08/08 09:27:42;;;;;;;3.00;1.90;;;18.00;99.90;;;;;;5034653;28;20249;-73
2023/08/08 09:30:11;;;;;;;2.92;1.75;;;17.90;99.90;;;;;;5034907;28;20393;-73
2023/08/08 09:32:38;;;;;;;4.47;2.20;;;18.30;99.90;;;;;;5034708;28;20734;-73
2023/08/08 09:35:09;;;;;;;2.92;1.80;;;18.40;99.90;;;;;;5034814;28;20251;-74
2023/08/08 09:37:35;;;;;;;2.70;1.60;;;18.60;99.90;;;;;;5034753;28;20248;-74
2023/08/08 09:40:05;;;;;;;3.13;2.00;;;18.90;99.90;;;;;;5034434;28;20230;-74
2023/08/08 09:42:33;;;;;;;3.25;1.80;;;19.10;99.90;;;;;;5034599;28;20222;-73
2023/08/08 09:45:00;;;;;;;2.70;1.90;;;18.90;99.90;;;;;;5034677;28;20209;-74
2023/08/08 09:47:30;;;;;;;3.00;1.80;;;18.60;99.90;;;;;;5034378;28;20598;-74
2023/08/08 09:49:59;;;;;;;2.65;1.80;;;18.70;99.90;;;;;;5034547;28;20205;-75
2023/08/08 09:52:27;;;;;;;1.80;1.70;;;18.50;99.90;;;;;;5034327;28;20206;-75
2023/08/08 09:54:54;;;;;;;3.38;1.92;;;18.90;99.90;;;;;;5034382;28;20264;-74
2023/08/08 09:57:22;;;;;;;3.63;2.17;;;18.70;99.90;;;;;;5034529;28;20202;-74
2023/08/08 09:59:51;;;;;;;4.00;1.95;;;18.50;99.90;;;;;;5034323;28;20792;-74
2023/08/08 10:02:18;;;;;;;2.72;1.70;;;18.40;99.90;;;;;;5034282;28;20203;-73
2023/08/08 10:04:45;;;;;;;2.88;2.03;;;18.40;99.90;;;;;;5034160;28;20240;-73
2023/08/08 10:07:12;;;;;;;2.38;1.92;;;18.50;99.90;;;;;;5034214;28;20194;-74
2023/08/08 10:09:39;;;;;;;3.28;2.00;;;18.40;99.90;;;;;;5034317;28;20273;-74
2023/08/08 10:12:07;;;;;;;3.50;1.73;;;18.50;99.90;;;;;;5033675;28;20198;-74
2023/08/08 10:14:36;;;;;;;2.78;2.00;;;18.80;99.90;;;;;;5034190;28;20252;-74
2023/08/08 10:17:05;;;;;;;2.63;1.83;;;19.10;99.90;;;;;;5034110;28;20199;-74
2023/08/08 10:19:31;;;;;;;2.35;1.88;;;18.90;99.90;;;;;;5034039;28;20252;-74
2023/08/08 10:22:00;;;;;;;3.60;1.90;;;19.10;99.90;;;;;;5033886;28;20256;-74
2023/08/08 10:24:33;;;;;;;2.72;1.70;;;19.50;99.90;;;;;;5033965;28;20296;-74
2023/08/08 10:27:01;;;;;;;4.15;1.95;;;19.50;99.90;;;;;;5034037;28;20214;-74
2023/08/08 10:29:30;;;;;;;2.95;1.70;;;19.40;99.90;;;;;;5033801;28;20654;-74
2023/08/08 10:32:00;;;;;;;3.78;1.90;;;19.00;99.90;;;;;;5033711;28;20202;-74
2023/08/08 10:34:38;;;;;;;1.55;1.45;;;19.00;99.90;;;;;;5033666;28;20202;-74
2023/08/08 10:37:06;;;;;;;6.55;1.98;;;18.80;99.90;;;;;;5033863;28;20198;-74
2023/08/08 10:39:32;;;;;;;2.55;1.85;;;18.70;99.90;;;;;;5033424;28;20314;-74
2023/08/08 10:42:03;;;;;;;5.65;1.90;;;18.70;99.90;;;;;;5033567;28;20203;-74
2023/08/08 10:44:31;;;;;;;2.05;1.77;;;18.80;99.90;;;;;;5033480;28;20230;-74
2023/08/08 10:46:57;;;;;;;2.00;1.40;;;18.80;99.90;;;;;;5033434;28;20305;-74
2023/08/08 10:49:24;;;;;;;4.53;1.88;;;19.00;99.90;;;;;;5033345;28;20720;-74
2023/08/08 10:51:52;;;;;;;3.03;1.63;;;19.10;99.90;;;;;;5033447;28;20202;-73
2023/08/08 10:54:22;;;;;;;1.90;1.70;;;19.40;99.90;;;;;;5033362;28;20199;-74
2023/08/08 10:56:51;;;;;;;2.67;1.77;;;19.30;99.90;;;;;;5033213;28;20230;-72
2023/08/08 10:59:19;;;;;;;2.08;1.42;;;19.40;99.90;;;;;;5033079;28;20613;-72
2023/08/08 11:01:48;;;;;;;2.47;1.60;;;19.20;99.90;;;;;;5033203;28;20650;-73
2023/08/08 11:04:16;;;;;;;3.10;1.80;;;19.40;99.90;;;;;;5032890;28;20705;-72
2023/08/08 11:06:43;;;;;;;2.65;1.77;;;20.10;99.90;;;;;;5033311;28;20614;-72
2023/08/08 11:09:11;;;;;;;2.13;1.60;;;20.00;99.90;;;;;;5033073;28;20194;-72
2023/08/08 11:11:39;;;;;;;3.95;2.05;;;20.20;99.90;;;;;;5033022;28;20210;-72
2023/08/08 11:14:13;;;;;;;2.28;1.67;;;21.00;99.90;;;;;;5033264;28;20228;-72
2023/08/08 11:16:40;;;;;;;1.90;1.60;;;21.10;99.90;;;;;;5033150;28;20193;-73
2023/08/08 11:19:07;;;;;;;3.50;1.70;;;20.60;99.90;;;;;;5033033;28;20206;-72
2023/08/08 11:21:36;;;;;;;2.58;1.70;;;21.00;99.90;;;;;;5032940;28;20249;-72
2023/08/08 11:24:03;;;;;;;2.08;1.60;;;20.90;99.90;;;;;;5032756;28;20236;-72
2023/08/08 11:26:32;;;;;;;4.00;1.83;;;21.30;99.90;;;;;;5032755;28;20198;-72
2023/08/08 11:28:59;;;;;;;2.15;1.65;;;22.30;99.90;;;;;;5032907;28;20199;-72
2023/08/08 11:31:26;;;;;;;2.92;1.70;;;22.40;99.90;;;;;;5032996;28;20256;-72
2023/08/08 11:33:54;;;;;;;3.50;1.77;;;22.80;99.90;;;;;;5032799;28;20202;-72
2023/08/08 11:36:22;;;;;;;3.45;1.90;;;23.80;99.90;;;;;;5032801;28;20319;-73
2023/08/08 11:38:50;;;;;;;2.60;1.73;;;23.40;99.90;;;;;;5032475;28;20324;-73
2023/08/08 11:41:18;;;;;;;4.43;1.60;;;22.50;99.90;;;;;;5032845;28;20198;-73
2023/08/08 11:43:47;;;;;;;3.75;2.10;;;22.20;99.90;;;;;;5032598;28;20827;-73
2023/08/08 11:46:15;;;;;;;2.17;1.70;;;21.70;99.90;;;;;;5032435;28;20589;-73
2023/08/08 11:48:42;;;;;;;1.67;1.58;;;21.60;99.90;;;;;;5032474;28;20202;-73
2023/08/08 11:51:09;;;;;;;3.28;1.92;;;21.20;99.90;;;;;;5032484;28;20593;-73
2023/08/08 11:53:36;;;;;;;3.33;1.80;;;21.90;99.90;;;;;;5032463;28;20202;-73
2023/08/08 11:56:04;;;;;;;3.72;1.90;;;21.60;99.90;;;;;;5032831;28;20203;-73
2023/08/08 11:58:31;;;;;;;3.20;2.00;;;21.60;99.40;;;;;;5032473;28;20203;-73
2023/08/08 12:00:59;;;;;;;3.42;1.98;;;22.00;98.00;;;;;;5032588;28;20194;-73
2023/08/08 12:03:26;;;;;;;4.45;1.90;;;22.80;98.10;;;;;;5032399;28;20222;-73
2023/08/08 12:05:53;;;;;;;2.55;1.90;;;23.50;96.80;;;;;;5032500;28;20206;-73
2023/08/08 12:08:20;;;;;;;3.72;1.80;;;23.50;96.10;;;;;;5032620;28;20206;-73
2023/08/08 12:10:51;;;;;;;5.65;2.20;;;22.80;95.60;;;;;;5032468;28;20316;-73
2023/08/08 12:13:21;;;;;;;2.63;1.70;;;22.20;96.90;;;;;;5032613;28;20237;-73
2023/08/08 12:15:48;;;;;;;2.28;1.80;;;23.00;95.80;;;;;;5032539;28;20225;-73
2023/08/08 12:18:18;;;;;;;2.50;1.77;;;23.60;95.10;;;;;;5032308;28;20289;-73
2023/08/08 12:20:45;;;;;;;2.60;1.90;;;23.50;94.00;;;;;;5032575;28;20191;-73
2023/08/08 12:23:12;;;;;;;2.70;1.70;;;23.20;93.10;;;;;;5032441;28;20203;-73
2023/08/08 12:25:39;;;;;;;2.95;1.95;;;22.70;93.60;;;;;;5032279;28;20198;-73
2023/08/08 12:28:06;;;;;;;3.03;2.03;;;23.10;93.50;;;;;;5032130;28;20658;-73
2023/08/08 12:30:33;;;;;;;2.83;1.90;;;23.20;93.80;;;;;;5032254;28;20249;-74
2023/08/08 12:33:00;;;;;;;2.03;1.83;;;22.80;94.40;;;;;;5032067;28;20260;-73
2023/08/08 12:35:27;;;;;;;2.38;1.90;;;22.50;94.70;;;;;;5036039;28;20605;-73
2023/08/08 12:37:54;;;;;;;3.08;2.17;;;22.80;94.00;;;;;;5036132;28;20195;-73
2023/08/08 12:40:21;;;;;;;2.88;1.80;;;22.40;93.40;;;;;;5035883;28;20348;-73
2023/08/08 12:42:48;;;;;;;2.42;2.00;;;21.40;93.70;;;;;;5035866;28;20205;-73
2023/08/08 12:45:14;;;;;;;2.33;2.13;;;20.80;93.10;;;;;;5035804;28;20222;-73
2023/08/08 12:47:41;;;;;;;2.92;1.85;;;20.50;93.40;;;;;;5035740;28;20194;-73